Madeline — WDF2406 — position and weather

sailwx.info

Track history (hours):
 
Tides and Currents Weather Stations Pressure Air Temp Water Temp Dewpoint Dewpoint Depression Visibility Wind Speed Wind Dir Waves Ship Positions

Madeline

Owner: Enterprise Marine Services, LLC, San Antonio, TX. More information available from US FCC via Universal Licensing System and Coast Guard Vessel Documentation Center.

Last reported at 2014-Oct-19 20:17 UTC. Time now 2014-Oct-23 10:59 UTC.
Position N 29°29' W 094°52'.

Length 30 m; draft 8 m.

Type: Tug. MMSI: 367350460.

Date/timePositionNaut miles runAvg speedWind from/ knotsBaromVisibWave heightAir tempDewpointWater temp
2014-Oct-19 20:17N 29°29' W 094°52'6 7.7
2014-Oct-19 19:34N 29°34' W 094°55'8 8.1
2014-Oct-19 18:34N 29°41' W 094°59'8 3.2
2014-Oct-19 16:08N 29°47' W 095°05'0 0.0
2014-Oct-19 12:33N 29°47' W 095°05'0 0.0
2014-Oct-19 11:34N 29°47' W 095°05'0 0.0
2014-Oct-19 10:28N 29°47' W 095°05'0 0.0
2014-Oct-19 09:33N 29°47' W 095°05'0 0.0
2014-Oct-19 08:33N 29°47' W 095°05'0 0.0
2014-Oct-19 07:34N 29°47' W 095°05'0 0.0
2014-Oct-19 06:32N 29°47' W 095°05'0 0.0
2014-Oct-19 05:21N 29°47' W 095°05'0 0.0
2014-Oct-19 04:33N 29°47' W 095°05'0 0.0
2014-Oct-19 03:17N 29°47' W 095°05'0 0.0
2014-Oct-19 01:34N 29°47' W 095°05'0 0.0
2014-Oct-19 00:32N 29°47' W 095°05'0 0.0
2014-Oct-18 23:25N 29°47' W 095°05'0 0.0
2014-Oct-18 22:33N 29°47' W 095°05'0 0.0
2014-Oct-18 21:24N 29°47' W 095°05'0 0.0
2014-Oct-18 19:33N 29°47' W 095°05'0 0.0
2014-Oct-18 14:09N 29°47' W 095°05'0 0.0
2014-Oct-18 13:34N 29°47' W 095°05'0 0.0
2014-Oct-18 12:33N 29°47' W 095°05'1 0.0
2014-Oct-17 20:27N 29°47' W 095°05'2 2.5
2014-Oct-17 19:33N 29°45' W 095°04'1 0.9
2014-Oct-17 18:33N 29°44' W 095°03'0 0.0
2014-Oct-17 17:33N 29°44' W 095°03'0 0.0
2014-Oct-17 16:33N 29°44' W 095°03'0 0.0
2014-Oct-17 15:33N 29°44' W 095°03'0 0.0
2014-Oct-17 14:33N 29°44' W 095°03'0 0.0
2014-Oct-17 13:28N 29°44' W 095°03'0 0.0
2014-Oct-17 12:33N 29°44' W 095°03'0 0.0
2014-Oct-17 11:33N 29°44' W 095°03'0 0.0
2014-Oct-17 10:32N 29°44' W 095°03'0 0.1
2014-Oct-17 09:32N 29°44' W 095°03'0 0.1
2014-Oct-17 08:33N 29°44' W 095°03'0 0.0
2014-Oct-17 07:33N 29°44' W 095°03'0 0.0
2014-Oct-17 06:33N 29°44' W 095°03'0 0.0
2014-Oct-17 05:33N 29°44' W 095°03'0 0.0
2014-Oct-17 04:33N 29°44' W 095°03'0 0.0
2014-Oct-17 03:32N 29°44' W 095°03'0 0.0
2014-Oct-17 02:33N 29°44' W 095°03'0 0.0
2014-Oct-17 01:33N 29°44' W 095°03'0 0.0
2014-Oct-17 00:33N 29°44' W 095°03'0 0.0
2014-Oct-16 23:33N 29°44' W 095°03'0 0.0
2014-Oct-16 22:33N 29°44' W 095°03'0 0.0
2014-Oct-16 21:31N 29°44' W 095°03'0 0.0
2014-Oct-16 20:33N 29°44' W 095°03'0 0.4
2014-Oct-16 19:33N 29°44' W 095°03'3 3.2
2014-Oct-16 18:33N 29°47' W 095°04'1 0.1
2014-Oct-16 13:22N 29°47' W 095°05'0 0.0
2014-Oct-16 10:27N 29°47' W 095°05'0 0.0
2014-Oct-16 09:33N 29°47' W 095°05'0 0.0
2014-Oct-16 08:21N 29°47' W 095°05'0 0.0
2014-Oct-16 04:30N 29°47' W 095°05'0 0.0
2014-Oct-16 03:31N 29°47' W 095°05'0 0.0
2014-Oct-16 02:17N 29°47' W 095°05'0 0.0
2014-Oct-16 01:32N 29°47' W 095°05'0 0.0
2014-Oct-15 14:30N 29°47' W 095°05'0 0.0
2014-Oct-15 12:32N 29°47' W 095°05'0 0.0
2014-Oct-15 11:25N 29°47' W 095°05'0 0.0
2014-Oct-15 10:19N 29°47' W 095°05'0 0.0
2014-Oct-15 09:33N 29°47' W 095°05'0 0.0
2014-Oct-15 08:33N 29°47' W 095°05'0 0.0
2014-Oct-15 07:33N 29°47' W 095°05'0 0.0
2014-Oct-15 06:33N 29°47' W 095°05'0 0.0
2014-Oct-15 05:33N 29°47' W 095°05'0 0.0
2014-Oct-15 04:31N 29°47' W 095°05'0 0.0
2014-Oct-15 03:14N 29°47' W 095°05'0 0.0
2014-Oct-15 02:32N 29°47' W 095°05'0 0.0
2014-Oct-14 18:16N 29°47' W 095°05'0 0.0
2014-Oct-14 12:33N 29°47' W 095°05'0 0.0
2014-Oct-13 07:04N 29°47' W 095°05'0 0.0
2014-Oct-13 06:24N 29°47' W 095°05'0 0.0
2014-Oct-13 01:27N 29°47' W 095°05'0 0.0
2014-Oct-12 23:17N 29°47' W 095°05'0 0.0
2014-Oct-12 22:16N 29°47' W 095°05'0 0.0
2014-Oct-12 21:23N 29°47' W 095°05'0 0.0
2014-Oct-12 20:26N 29°47' W 095°05'0 0.0
2014-Oct-12 19:21N 29°47' W 095°05'0 0.0
2014-Oct-12 17:22N 29°47' W 095°05'0 0.0
2014-Oct-12 16:04N 29°47' W 095°05'0 0.0
2014-Oct-12 15:03N 29°47' W 095°05'0 0.0
2014-Oct-12 14:13N 29°47' W 095°05'0 0.0
2014-Oct-12 13:29N 29°47' W 095°05'0 0.0
2014-Oct-12 12:13N 29°47' W 095°05'0 0.0
2014-Oct-12 11:06N 29°47' W 095°05'0 0.0
2014-Oct-12 02:12N 29°47' W 095°05'0 0.0
2014-Oct-12 01:17N 29°47' W 095°05'0 0.0
2014-Oct-12 00:21N 29°47' W 095°05'0 0.0
2014-Oct-11 23:08N 29°47' W 095°05'0 0.0
2014-Oct-11 22:27N 29°47' W 095°05'0 0.2
2014-Oct-11 21:08N 29°47' W 095°05'1 2.2
2014-Oct-11 20:32N 29°46' W 095°05'5 4.4
2014-Oct-11 19:28N 29°45' W 095°10'4 3.7
2014-Oct-11 18:17N 29°43' W 095°15'1 0.1
2014-Oct-10 21:28N 29°44' W 095°14'6 5.7
2014-Oct-10 20:23N 29°44' W 095°07'3 0.4
2014-Oct-10 12:12N 29°47' W 095°04'4 5.5
2014-Oct-10 11:33N 29°44' W 095°02'7 7.0
2014-Oct-10 10:33N 29°38' W 094°58'8 8.1
2014-Oct-10 09:33N 29°31' W 094°53'  
Track history (hours):
 
Tides and Currents Weather Stations Pressure Air Temp Water Temp Dewpoint Dewpoint Depression Visibility Wind Speed Wind Dir Waves Ship Positions

Madeline

Owner: Enterprise Marine Services, LLC, San Antonio, TX. More information available from US FCC via Universal Licensing System and Coast Guard Vessel Documentation Center.

Last reported at 2014-Oct-19 20:17 UTC. Time now 2014-Oct-23 10:59 UTC.
Position N 29°29' W 094°52'.

Length 30 m; draft 8 m.

Type: Tug. MMSI: 367350460.

Date/timePositionNaut miles runAvg speedWind from/ knotsBaromVisibWave heightAir tempDewpointWater temp
2014-Oct-19 20:17N 29°29' W 094°52'6 7.7
2014-Oct-19 19:34N 29°34' W 094°55'8 8.1
2014-Oct-19 18:34N 29°41' W 094°59'8 3.2
2014-Oct-19 16:08N 29°47' W 095°05'0 0.0
2014-Oct-19 12:33N 29°47' W 095°05'0 0.0
2014-Oct-19 11:34N 29°47' W 095°05'0 0.0
2014-Oct-19 10:28N 29°47' W 095°05'0 0.0
2014-Oct-19 09:33N 29°47' W 095°05'0 0.0
2014-Oct-19 08:33N 29°47' W 095°05'0 0.0
2014-Oct-19 07:34N 29°47' W 095°05'0 0.0
2014-Oct-19 06:32N 29°47' W 095°05'0 0.0
2014-Oct-19 05:21N 29°47' W 095°05'0 0.0
2014-Oct-19 04:33N 29°47' W 095°05'0 0.0
2014-Oct-19 03:17N 29°47' W 095°05'0 0.0
2014-Oct-19 01:34N 29°47' W 095°05'0 0.0
2014-Oct-19 00:32N 29°47' W 095°05'0 0.0
2014-Oct-18 23:25N 29°47' W 095°05'0 0.0
2014-Oct-18 22:33N 29°47' W 095°05'0 0.0
2014-Oct-18 21:24N 29°47' W 095°05'0 0.0
2014-Oct-18 19:33N 29°47' W 095°05'0 0.0
2014-Oct-18 14:09N 29°47' W 095°05'0 0.0
2014-Oct-18 13:34N 29°47' W 095°05'0 0.0
2014-Oct-18 12:33N 29°47' W 095°05'1 0.0
2014-Oct-17 20:27N 29°47' W 095°05'2 2.5
2014-Oct-17 19:33N 29°45' W 095°04'1 0.9
2014-Oct-17 18:33N 29°44' W 095°03'0 0.0
2014-Oct-17 17:33N 29°44' W 095°03'0 0.0
2014-Oct-17 16:33N 29°44' W 095°03'0 0.0
2014-Oct-17 15:33N 29°44' W 095°03'0 0.0
2014-Oct-17 14:33N 29°44' W 095°03'0 0.0
2014-Oct-17 13:28N 29°44' W 095°03'0 0.0
2014-Oct-17 12:33N 29°44' W 095°03'0 0.0
2014-Oct-17 11:33N 29°44' W 095°03'0 0.0
2014-Oct-17 10:32N 29°44' W 095°03'0 0.1
2014-Oct-17 09:32N 29°44' W 095°03'0 0.1
2014-Oct-17 08:33N 29°44' W 095°03'0 0.0
2014-Oct-17 07:33N 29°44' W 095°03'0 0.0
2014-Oct-17 06:33N 29°44' W 095°03'0 0.0
2014-Oct-17 05:33N 29°44' W 095°03'0 0.0
2014-Oct-17 04:33N 29°44' W 095°03'0 0.0
2014-Oct-17 03:32N 29°44' W 095°03'0 0.0
2014-Oct-17 02:33N 29°44' W 095°03'0 0.0
2014-Oct-17 01:33N 29°44' W 095°03'0 0.0
2014-Oct-17 00:33N 29°44' W 095°03'0 0.0
2014-Oct-16 23:33N 29°44' W 095°03'0 0.0
2014-Oct-16 22:33N 29°44' W 095°03'0 0.0
2014-Oct-16 21:31N 29°44' W 095°03'0 0.0
2014-Oct-16 20:33N 29°44' W 095°03'0 0.4
2014-Oct-16 19:33N 29°44' W 095°03'3 3.2
2014-Oct-16 18:33N 29°47' W 095°04'1 0.1
2014-Oct-16 13:22N 29°47' W 095°05'0 0.0
2014-Oct-16 10:27N 29°47' W 095°05'0 0.0
2014-Oct-16 09:33N 29°47' W 095°05'0 0.0
2014-Oct-16 08:21N 29°47' W 095°05'0 0.0
2014-Oct-16 04:30N 29°47' W 095°05'0 0.0
2014-Oct-16 03:31N 29°47' W 095°05'0 0.0
2014-Oct-16 02:17N 29°47' W 095°05'0 0.0
2014-Oct-16 01:32N 29°47' W 095°05'0 0.0
2014-Oct-15 14:30N 29°47' W 095°05'0 0.0
2014-Oct-15 12:32N 29°47' W 095°05'0 0.0
2014-Oct-15 11:25N 29°47' W 095°05'0 0.0
2014-Oct-15 10:19N 29°47' W 095°05'0 0.0
2014-Oct-15 09:33N 29°47' W 095°05'0 0.0
2014-Oct-15 08:33N 29°47' W 095°05'0 0.0
2014-Oct-15 07:33N 29°47' W 095°05'0 0.0
2014-Oct-15 06:33N 29°47' W 095°05'0 0.0
2014-Oct-15 05:33N 29°47' W 095°05'0 0.0
2014-Oct-15 04:31N 29°47' W 095°05'0 0.0
2014-Oct-15 03:14N 29°47' W 095°05'0 0.0
2014-Oct-15 02:32N 29°47' W 095°05'0 0.0
2014-Oct-14 18:16N 29°47' W 095°05'0 0.0
2014-Oct-14 12:33N 29°47' W 095°05'0 0.0
2014-Oct-13 07:04N 29°47' W 095°05'0 0.0
2014-Oct-13 06:24N 29°47' W 095°05'0 0.0
2014-Oct-13 01:27N 29°47' W 095°05'0 0.0
2014-Oct-12 23:17N 29°47' W 095°05'0 0.0
2014-Oct-12 22:16N 29°47' W 095°05'0 0.0
2014-Oct-12 21:23N 29°47' W 095°05'0 0.0
2014-Oct-12 20:26N 29°47' W 095°05'0 0.0
2014-Oct-12 19:21N 29°47' W 095°05'0 0.0
2014-Oct-12 17:22N 29°47' W 095°05'0 0.0
2014-Oct-12 16:04N 29°47' W 095°05'0 0.0
2014-Oct-12 15:03N 29°47' W 095°05'0 0.0
2014-Oct-12 14:13N 29°47' W 095°05'0 0.0
2014-Oct-12 13:29N 29°47' W 095°05'0 0.0
2014-Oct-12 12:13N 29°47' W 095°05'0 0.0
2014-Oct-12 11:06N 29°47' W 095°05'0 0.0
2014-Oct-12 02:12N 29°47' W 095°05'0 0.0
2014-Oct-12 01:17N 29°47' W 095°05'0 0.0
2014-Oct-12 00:21N 29°47' W 095°05'0 0.0
2014-Oct-11 23:08N 29°47' W 095°05'0 0.0
2014-Oct-11 22:27N 29°47' W 095°05'0 0.2
2014-Oct-11 21:08N 29°47' W 095°05'1 2.2
2014-Oct-11 20:32N 29°46' W 095°05'5 4.4
2014-Oct-11 19:28N 29°45' W 095°10'4 3.7
2014-Oct-11 18:17N 29°43' W 095°15'1 0.1
2014-Oct-10 21:28N 29°44' W 095°14'6 5.7
2014-Oct-10 20:23N 29°44' W 095°07'3 0.4
2014-Oct-10 12:12N 29°47' W 095°04'4 5.5
2014-Oct-10 11:33N 29°44' W 095°02'7 7.0
2014-Oct-10 10:33N 29°38' W 094°58'8 8.1
2014-Oct-10 09:33N 29°31' W 094°53'  

Dump ship's entire track history